sensor_id;sensor_type;location;lat;lon;timestamp;temperature;humidity
13251;DHT22;6692;50.710;7.180;2022-11-23T00:01:37;10.00;99.90
13251;DHT22;6692;50.710;7.180;2022-11-23T00:03:38;10.00;99.90
13251;DHT22;6692;50.710;7.180;2022-11-23T00:05:38;10.00;99.90
13251;DHT22;6692;50.710;7.180;2022-11-23T00:07:39;10.00;99.90
13251;DHT22;6692;50.710;7.180;2022-11-23T00:09:40;10.00;99.90
13251;DHT22;6692;50.710;7.180;2022-11-23T00:11:40;10.00;99.90
13251;DHT22;6692;50.710;7.180;2022-11-23T00:13:41;10.10;99.90
13251;DHT22;6692;50.710;7.180;2022-11-23T00:15:42;10.10;99.90
13251;DHT22;6692;50.710;7.180;2022-11-23T00:17:42;10.10;99.90
13251;DHT22;6692;50.710;7.180;2022-11-23T00:19:43;10.10;99.90
13251;DHT22;6692;50.710;7.180;2022-11-23T00:21:44;10.10;99.90
13251;DHT22;6692;50.710;7.180;2022-11-23T00:23:44;10.10;99.90
13251;DHT22;6692;50.710;7.180;2022-11-23T00:25:46;10.10;99.90
13251;DHT22;6692;50.710;7.180;2022-11-23T00:27:46;10.10;99.90
13251;DHT22;6692;50.710;7.180;2022-11-23T00:29:47;10.10;99.90
13251;DHT22;6692;50.710;7.180;2022-11-23T00:31:48;10.00;99.90
13251;DHT22;6692;50.710;7.180;2022-11-23T00:33:49;9.90;99.90
13251;DHT22;6692;50.710;7.180;2022-11-23T00:35:58;9.80;99.90
13251;DHT22;6692;50.710;7.180;2022-11-23T00:37:59;9.70;99.90
13251;DHT22;6692;50.710;7.180;2022-11-23T00:39:59;9.70;99.90
13251;DHT22;6692;50.710;7.180;2022-11-23T00:42:00;9.60;99.90
13251;DHT22;6692;50.710;7.180;2022-11-23T00:44:02;9.70;99.90
13251;DHT22;6692;50.710;7.180;2022-11-23T00:46:05;9.70;99.90
13251;DHT22;6692;50.710;7.180;2022-11-23T00:48:05;9.60;99.90
13251;DHT22;6692;50.710;7.180;2022-11-23T00:50:07;9.70;99.90
13251;DHT22;6692;50.710;7.180;2022-11-23T00:52:08;9.70;99.90
13251;DHT22;6692;50.710;7.180;2022-11-23T00:54:09;9.80;99.90
13251;DHT22;6692;50.710;7.180;2022-11-23T00:56:10;9.80;99.90
13251;DHT22;6692;50.710;7.180;2022-11-23T00:58:11;9.80;99.90
13251;DHT22;6692;50.710;7.180;2022-11-23T01:00:12;9.90;99.90
13251;DHT22;6692;50.710;7.180;2022-11-23T01:02:13;9.90;99.90
13251;DHT22;6692;50.710;7.180;2022-11-23T01:04:14;9.90;99.90
13251;DHT22;6692;50.710;7.180;2022-11-23T01:06:16;9.90;99.90
13251;DHT22;6692;50.710;7.180;2022-11-23T01:08:15;9.90;99.90
13251;DHT22;6692;50.710;7.180;2022-11-23T01:10:17;10.00;99.90
13251;DHT22;6692;50.710;7.180;2022-11-23T01:12:17;9.90;99.90
13251;DHT22;6692;50.710;7.180;2022-11-23T01:14:18;10.00;99.90
13251;DHT22;6692;50.710;7.180;2022-11-23T01:16:20;10.00;99.90
13251;DHT22;6692;50.710;7.180;2022-11-23T01:18:20;10.00;99.90
13251;DHT22;6692;50.710;7.180;2022-11-23T01:20:21;10.00;99.90
13251;DHT22;6692;50.710;7.180;2022-11-23T01:22:22;10.00;99.90
13251;DHT22;6692;50.710;7.180;2022-11-23T01:24:22;10.00;99.90
13251;DHT22;6692;50.710;7.180;2022-11-23T01:26:24;10.00;99.90
13251;DHT22;6692;50.710;7.180;2022-11-23T01:28:24;10.00;99.90
13251;DHT22;6692;50.710;7.180;2022-11-23T01:30:25;10.00;99.90
13251;DHT22;6692;50.710;7.180;2022-11-23T01:32:26;10.00;99.90
13251;DHT22;6692;50.710;7.180;2022-11-23T01:34:27;10.00;99.90
13251;DHT22;6692;50.710;7.180;2022-11-23T01:36:30;10.00;99.90
13251;DHT22;6692;50.710;7.180;2022-11-23T01:38:29;9.90;99.90
13251;DHT22;6692;50.710;7.180;2022-11-23T01:40:31;9.90;99.90
13251;DHT22;6692;50.710;7.180;2022-11-23T01:42:54;9.80;99.90
13251;DHT22;6692;50.710;7.180;2022-11-23T01:45:05;9.80;99.90
13251;DHT22;6692;50.710;7.180;2022-11-23T01:46:55;9.80;99.90
13251;DHT22;6692;50.710;7.180;2022-11-23T01:49:05;9.80;99.90
13251;DHT22;6692;50.710;7.180;2022-11-23T01:51:08;9.80;99.90
13251;DHT22;6692;50.710;7.180;2022-11-23T01:53:06;9.90;99.90
13251;DHT22;6692;50.710;7.180;2022-11-23T01:55:07;9.90;99.90
13251;DHT22;6692;50.710;7.180;2022-11-23T01:57:10;9.90;99.90
13251;DHT22;6692;50.710;7.180;2022-11-23T01:59:10;9.90;99.90
13251;DHT22;6692;50.710;7.180;2022-11-23T02:01:10;9.90;99.90
13251;DHT22;6692;50.710;7.180;2022-11-23T02:03:10;9.90;99.90
13251;DHT22;6692;50.710;7.180;2022-11-23T02:05:11;9.90;99.90
13251;DHT22;6692;50.710;7.180;2022-11-23T02:07:12;9.90;99.90
13251;DHT22;6692;50.710;7.180;2022-11-23T02:09:14;9.90;99.90
13251;DHT22;6692;50.710;7.180;2022-11-23T02:11:15;9.90;99.90
13251;DHT22;6692;50.710;7.180;2022-11-23T02:13:16;9.90;99.90
13251;DHT22;6692;50.710;7.180;2022-11-23T02:15:17;9.90;99.90
13251;DHT22;6692;50.710;7.180;2022-11-23T02:17:18;9.90;99.90
13251;DHT22;6692;50.710;7.180;2022-11-23T02:21:40;9.90;99.90
13251;DHT22;6692;50.710;7.180;2022-11-23T02:23:54;9.90;99.90
13251;DHT22;6692;50.710;7.180;2022-11-23T02:26:00;9.90;99.90
13251;DHT22;6692;50.710;7.180;2022-11-23T02:27:59;9.90;99.90
13251;DHT22;6692;50.710;7.180;2022-11-23T02:30:01;9.90;99.90
13251;DHT22;6692;50.710;7.180;2022-11-23T02:32:02;9.90;99.90
13251;DHT22;6692;50.710;7.180;2022-11-23T02:34:03;10.00;99.90
13251;DHT22;6692;50.710;7.180;2022-11-23T02:38:17;10.00;99.90
13251;DHT22;6692;50.710;7.180;2022-11-23T02:40:32;10.00;99.90
13251;DHT22;6692;50.710;7.180;2022-11-23T02:42:31;10.00;99.90
13251;DHT22;6692;50.710;7.180;2022-11-23T02:44:40;10.00;99.90
13251;DHT22;6692;50.710;7.180;2022-11-23T02:46:39;10.00;99.90
13251;DHT22;6692;50.710;7.180;2022-11-23T02:48:39;10.00;99.90
13251;DHT22;6692;50.710;7.180;2022-11-23T02:50:40;10.00;99.90
13251;DHT22;6692;50.710;7.180;2022-11-23T02:52:41;10.00;99.90
13251;DHT22;6692;50.710;7.180;2022-11-23T02:54:42;10.00;99.90
13251;DHT22;6692;50.710;7.180;2022-11-23T02:56:43;10.00;99.90
13251;DHT22;6692;50.710;7.180;2022-11-23T02:58:44;10.10;99.90
13251;DHT22;6692;50.710;7.180;2022-11-23T03:00:44;10.10;99.90
13251;DHT22;6692;50.710;7.180;2022-11-23T03:02:46;10.10;99.90
13251;DHT22;6692;50.710;7.180;2022-11-23T03:04:46;10.00;99.90
13251;DHT22;6692;50.710;7.180;2022-11-23T03:06:47;10.00;99.90
13251;DHT22;6692;50.710;7.180;2022-11-23T03:08:48;10.00;99.90
13251;DHT22;6692;50.710;7.180;2022-11-23T03:10:49;10.00;99.90
13251;DHT22;6692;50.710;7.180;2022-11-23T03:12:52;10.00;99.90
13251;DHT22;6692;50.710;7.180;2022-11-23T03:14:50;10.00;99.90
13251;DHT22;6692;50.710;7.180;2022-11-23T03:16:51;10.00;99.90
13251;DHT22;6692;50.710;7.180;2022-11-23T03:18:52;9.90;99.90
13251;DHT22;6692;50.710;7.180;2022-11-23T03:20:52;10.00;99.90
13251;DHT22;6692;50.710;7.180;2022-11-23T03:22:53;9.90;99.90
13251;DHT22;6692;50.710;7.180;2022-11-23T03:24:54;10.00;99.90
13251;DHT22;6692;50.710;7.180;2022-11-23T03:26:54;9.90;99.90
13251;DHT22;6692;50.710;7.180;2022-11-23T03:28:55;9.90;99.90
13251;DHT22;6692;50.710;7.180;2022-11-23T03:30:56;9.90;99.90
13251;DHT22;6692;50.710;7.180;2022-11-23T03:32:57;9.80;99.90
13251;DHT22;6692;50.710;7.180;2022-11-23T03:34:57;9.80;99.90
13251;DHT22;6692;50.710;7.180;2022-11-23T03:36:58;9.70;99.90
13251;DHT22;6692;50.710;7.180;2022-11-23T03:38:59;9.60;99.90
13251;DHT22;6692;50.710;7.180;2022-11-23T03:40:59;9.60;99.90
13251;DHT22;6692;50.710;7.180;2022-11-23T03:43:00;9.60;99.90
13251;DHT22;6692;50.710;7.180;2022-11-23T03:45:01;9.60;99.90
13251;DHT22;6692;50.710;7.180;2022-11-23T03:47:02;9.70;99.90
13251;DHT22;6692;50.710;7.180;2022-11-23T03:49:03;9.70;99.90
13251;DHT22;6692;50.710;7.180;2022-11-23T03:51:04;9.60;99.90
13251;DHT22;6692;50.710;7.180;2022-11-23T03:53:05;9.70;99.90
13251;DHT22;6692;50.710;7.180;2022-11-23T03:55:06;9.70;99.90
13251;DHT22;6692;50.710;7.180;2022-11-23T03:57:07;9.70;99.90
13251;DHT22;6692;50.710;7.180;2022-11-23T03:59:08;9.70;99.90
13251;DHT22;6692;50.710;7.180;2022-11-23T04:01:09;9.70;99.90
13251;DHT22;6692;50.710;7.180;2022-11-23T04:03:10;9.70;99.90
13251;DHT22;6692;50.710;7.180;2022-11-23T04:05:10;9.70;99.90
13251;DHT22;6692;50.710;7.180;2022-11-23T04:07:12;9.60;99.90
13251;DHT22;6692;50.710;7.180;2022-11-23T04:09:12;9.60;99.90
13251;DHT22;6692;50.710;7.180;2022-11-23T04:11:13;9.60;99.90
13251;DHT22;6692;50.710;7.180;2022-11-23T04:13:14;9.60;99.90
13251;DHT22;6692;50.710;7.180;2022-11-23T04:15:14;9.60;99.90
13251;DHT22;6692;50.710;7.180;2022-11-23T04:17:16;9.80;99.90
13251;DHT22;6692;50.710;7.180;2022-11-23T04:19:17;9.80;99.90
13251;DHT22;6692;50.710;7.180;2022-11-23T04:21:17;9.80;99.90
13251;DHT22;6692;50.710;7.180;2022-11-23T04:23:19;9.80;99.90
13251;DHT22;6692;50.710;7.180;2022-11-23T04:25:19;9.80;99.90
13251;DHT22;6692;50.710;7.180;2022-11-23T04:27:21;9.80;99.90
13251;DHT22;6692;50.710;7.180;2022-11-23T04:29:23;9.80;99.90
13251;DHT22;6692;50.710;7.180;2022-11-23T04:31:24;9.80;99.90
13251;DHT22;6692;50.710;7.180;2022-11-23T04:33:25;9.70;99.90
13251;DHT22;6692;50.710;7.180;2022-11-23T04:35:25;9.70;99.90
13251;DHT22;6692;50.710;7.180;2022-11-23T04:37:26;9.70;99.90
13251;DHT22;6692;50.710;7.180;2022-11-23T04:39:27;9.70;99.90
13251;DHT22;6692;50.710;7.180;2022-11-23T04:41:27;9.70;99.90
13251;DHT22;6692;50.710;7.180;2022-11-23T04:43:28;9.70;99.90
13251;DHT22;6692;50.710;7.180;2022-11-23T04:45:29;9.70;99.90
13251;DHT22;6692;50.710;7.180;2022-11-23T04:47:30;9.70;99.90
13251;DHT22;6692;50.710;7.180;2022-11-23T04:49:31;9.70;99.90
13251;DHT22;6692;50.710;7.180;2022-11-23T04:51:31;9.70;99.90
13251;DHT22;6692;50.710;7.180;2022-11-23T04:53:32;9.70;99.90
13251;DHT22;6692;50.710;7.180;2022-11-23T04:55:33;9.70;99.90
13251;DHT22;6692;50.710;7.180;2022-11-23T04:57:33;9.60;99.90
13251;DHT22;6692;50.710;7.180;2022-11-23T04:59:35;9.70;99.90
13251;DHT22;6692;50.710;7.180;2022-11-23T05:01:35;9.70;99.90
13251;DHT22;6692;50.710;7.180;2022-11-23T05:03:36;9.70;99.90
13251;DHT22;6692;50.710;7.180;2022-11-23T05:05:37;9.70;99.90
13251;DHT22;6692;50.710;7.180;2022-11-23T05:07:37;9.70;99.90
13251;DHT22;6692;50.710;7.180;2022-11-23T05:09:38;9.60;99.90
13251;DHT22;6692;50.710;7.180;2022-11-23T05:11:40;9.40;99.90
13251;DHT22;6692;50.710;7.180;2022-11-23T05:13:41;9.40;99.90
13251;DHT22;6692;50.710;7.180;2022-11-23T05:15:42;9.20;99.90
13251;DHT22;6692;50.710;7.180;2022-11-23T05:17:43;9.20;99.90
13251;DHT22;6692;50.710;7.180;2022-11-23T05:19:44;9.10;99.90
13251;DHT22;6692;50.710;7.180;2022-11-23T05:21:45;9.10;99.90
13251;DHT22;6692;50.710;7.180;2022-11-23T05:23:46;9.00;99.90
13251;DHT22;6692;50.710;7.180;2022-11-23T05:25:47;9.00;99.90
13251;DHT22;6692;50.710;7.180;2022-11-23T05:27:47;9.00;99.90
13251;DHT22;6692;50.710;7.180;2022-11-23T05:29:48;9.00;99.90
13251;DHT22;6692;50.710;7.180;2022-11-23T05:31:49;9.00;99.90
13251;DHT22;6692;50.710;7.180;2022-11-23T05:33:49;9.10;99.90
13251;DHT22;6692;50.710;7.180;2022-11-23T05:35:51;9.10;99.90
13251;DHT22;6692;50.710;7.180;2022-11-23T05:37:51;9.10;99.90
13251;DHT22;6692;50.710;7.180;2022-11-23T05:39:52;9.10;99.90
13251;DHT22;6692;50.710;7.180;2022-11-23T05:41:53;9.10;99.90
13251;DHT22;6692;50.710;7.180;2022-11-23T05:43:53;9.20;99.90
13251;DHT22;6692;50.710;7.180;2022-11-23T05:45:57;9.20;99.90
13251;DHT22;6692;50.710;7.180;2022-11-23T05:47:56;9.30;99.90
13251;DHT22;6692;50.710;7.180;2022-11-23T05:49:55;9.30;99.90
13251;DHT22;6692;50.710;7.180;2022-11-23T05:51:56;9.30;99.90
13251;DHT22;6692;50.710;7.180;2022-11-23T05:53:59;9.30;99.90
13251;DHT22;6692;50.710;7.180;2022-11-23T05:55:59;9.30;99.90
13251;DHT22;6692;50.710;7.180;2022-11-23T05:58:01;9.40;99.90
13251;DHT22;6692;50.710;7.180;2022-11-23T06:00:03;9.30;99.90
13251;DHT22;6692;50.710;7.180;2022-11-23T06:02:02;9.30;99.90
13251;DHT22;6692;50.710;7.180;2022-11-23T06:04:03;9.30;99.90
13251;DHT22;6692;50.710;7.180;2022-11-23T06:06:05;9.40;99.90
13251;DHT22;6692;50.710;7.180;2022-11-23T06:08:06;9.40;99.90
13251;DHT22;6692;50.710;7.180;2022-11-23T06:10:08;9.50;99.90
13251;DHT22;6692;50.710;7.180;2022-11-23T06:12:08;9.50;99.90
13251;DHT22;6692;50.710;7.180;2022-11-23T06:14:09;9.50;99.90
13251;DHT22;6692;50.710;7.180;2022-11-23T06:16:11;9.60;99.90
13251;DHT22;6692;50.710;7.180;2022-11-23T06:18:11;9.50;99.90
13251;DHT22;6692;50.710;7.180;2022-11-23T06:20:12;9.60;99.90
13251;DHT22;6692;50.710;7.180;2022-11-23T06:22:13;9.60;99.90
13251;DHT22;6692;50.710;7.180;2022-11-23T06:24:13;9.60;99.90
13251;DHT22;6692;50.710;7.180;2022-11-23T06:26:14;9.60;99.90
13251;DHT22;6692;50.710;7.180;2022-11-23T06:28:15;9.60;99.90
13251;DHT22;6692;50.710;7.180;2022-11-23T06:30:16;9.70;99.90
13251;DHT22;6692;50.710;7.180;2022-11-23T06:32:18;9.70;99.90
13251;DHT22;6692;50.710;7.180;2022-11-23T06:34:18;9.70;99.90
13251;DHT22;6692;50.710;7.180;2022-11-23T06:36:19;9.70;99.90
13251;DHT22;6692;50.710;7.180;2022-11-23T06:38:20;9.70;99.90
13251;DHT22;6692;50.710;7.180;2022-11-23T06:40:20;9.70;99.90
13251;DHT22;6692;50.710;7.180;2022-11-23T06:42:21;9.70;99.90
13251;DHT22;6692;50.710;7.180;2022-11-23T06:44:22;9.70;99.90
13251;DHT22;6692;50.710;7.180;2022-11-23T06:46:22;9.80;99.90
13251;DHT22;6692;50.710;7.180;2022-11-23T06:48:23;9.70;99.90
13251;DHT22;6692;50.710;7.180;2022-11-23T06:50:24;9.70;99.90
13251;DHT22;6692;50.710;7.180;2022-11-23T06:52:24;9.70;99.90
13251;DHT22;6692;50.710;7.180;2022-11-23T06:54:26;9.80;99.90
13251;DHT22;6692;50.710;7.180;2022-11-23T06:56:29;9.80;99.90
13251;DHT22;6692;50.710;7.180;2022-11-23T06:58:29;9.80;99.90
13251;DHT22;6692;50.710;7.180;2022-11-23T07:00:29;9.80;99.90
13251;DHT22;6692;50.710;7.180;2022-11-23T07:02:30;9.80;99.90
13251;DHT22;6692;50.710;7.180;2022-11-23T07:04:31;9.80;99.90
13251;DHT22;6692;50.710;7.180;2022-11-23T07:06:31;9.80;99.90
13251;DHT22;6692;50.710;7.180;2022-11-23T07:08:32;9.80;99.90
13251;DHT22;6692;50.710;7.180;2022-11-23T07:10:33;9.80;99.90
13251;DHT22;6692;50.710;7.180;2022-11-23T07:12:33;9.80;99.90
13251;DHT22;6692;50.710;7.180;2022-11-23T07:14:35;9.80;99.90
13251;DHT22;6692;50.710;7.180;2022-11-23T07:16:36;9.80;99.90
13251;DHT22;6692;50.710;7.180;2022-11-23T07:18:37;9.90;99.90
13251;DHT22;6692;50.710;7.180;2022-11-23T07:20:37;9.90;99.90
13251;DHT22;6692;50.710;7.180;2022-11-23T07:22:39;9.90;99.90
13251;DHT22;6692;50.710;7.180;2022-11-23T07:24:39;9.90;99.90
13251;DHT22;6692;50.710;7.180;2022-11-23T07:26:40;9.90;99.90
13251;DHT22;6692;50.710;7.180;2022-11-23T07:28:41;9.90;99.90
13251;DHT22;6692;50.710;7.180;2022-11-23T07:30:43;9.90;99.90
13251;DHT22;6692;50.710;7.180;2022-11-23T07:32:46;9.90;99.90
13251;DHT22;6692;50.710;7.180;2022-11-23T07:34:47;9.90;99.90
13251;DHT22;6692;50.710;7.180;2022-11-23T07:36:47;9.90;99.90
13251;DHT22;6692;50.710;7.180;2022-11-23T07:38:48;9.90;99.90
13251;DHT22;6692;50.710;7.180;2022-11-23T07:40:49;9.90;99.90
13251;DHT22;6692;50.710;7.180;2022-11-23T07:42:50;9.80;99.90
13251;DHT22;6692;50.710;7.180;2022-11-23T07:44:51;9.70;99.90
13251;DHT22;6692;50.710;7.180;2022-11-23T07:46:52;9.70;99.90
13251;DHT22;6692;50.710;7.180;2022-11-23T07:48:52;9.60;99.90
13251;DHT22;6692;50.710;7.180;2022-11-23T07:50:53;9.50;99.90
13251;DHT22;6692;50.710;7.180;2022-11-23T07:52:54;9.40;99.90
13251;DHT22;6692;50.710;7.180;2022-11-23T07:54:55;9.40;99.90
13251;DHT22;6692;50.710;7.180;2022-11-23T07:56:55;9.40;99.90
13251;DHT22;6692;50.710;7.180;2022-11-23T07:58:56;9.40;99.90
13251;DHT22;6692;50.710;7.180;2022-11-23T08:00:57;9.40;99.90
13251;DHT22;6692;50.710;7.180;2022-11-23T08:02:57;9.50;99.90
13251;DHT22;6692;50.710;7.180;2022-11-23T08:04:58;9.50;99.90
13251;DHT22;6692;50.710;7.180;2022-11-23T08:06:59;9.40;99.90
13251;DHT22;6692;50.710;7.180;2022-11-23T08:08:59;9.40;99.90
13251;DHT22;6692;50.710;7.180;2022-11-23T08:11:00;9.40;99.90
13251;DHT22;6692;50.710;7.180;2022-11-23T08:13:02;9.30;99.90
13251;DHT22;6692;50.710;7.180;2022-11-23T08:15:03;9.30;99.90
13251;DHT22;6692;50.710;7.180;2022-11-23T08:17:04;9.30;99.90
13251;DHT22;6692;50.710;7.180;2022-11-23T08:19:05;9.20;99.90
13251;DHT22;6692;50.710;7.180;2022-11-23T08:21:06;9.20;99.90
13251;DHT22;6692;50.710;7.180;2022-11-23T08:23:07;9.10;99.90
13251;DHT22;6692;50.710;7.180;2022-11-23T08:25:08;9.10;99.90
13251;DHT22;6692;50.710;7.180;2022-11-23T08:27:09;9.20;99.90
13251;DHT22;6692;50.710;7.180;2022-11-23T08:29:10;9.20;99.90
13251;DHT22;6692;50.710;7.180;2022-11-23T08:31:11;9.10;99.90
13251;DHT22;6692;50.710;7.180;2022-11-23T08:33:12;9.20;99.90
13251;DHT22;6692;50.710;7.180;2022-11-23T08:35:13;9.20;99.90
13251;DHT22;6692;50.710;7.180;2022-11-23T08:37:14;9.30;99.90
13251;DHT22;6692;50.710;7.180;2022-11-23T08:39:15;9.40;99.90
13251;DHT22;6692;50.710;7.180;2022-11-23T08:41:16;9.60;99.90
13251;DHT22;6692;50.710;7.180;2022-11-23T08:43:17;9.60;99.90
13251;DHT22;6692;50.710;7.180;2022-11-23T08:45:17;9.70;99.90
13251;DHT22;6692;50.710;7.180;2022-11-23T08:47:18;9.70;99.90
13251;DHT22;6692;50.710;7.180;2022-11-23T08:49:19;9.60;99.90
13251;DHT22;6692;50.710;7.180;2022-11-23T08:51:19;9.60;99.90
13251;DHT22;6692;50.710;7.180;2022-11-23T08:53:21;9.50;99.90
13251;DHT22;6692;50.710;7.180;2022-11-23T08:55:22;9.50;99.90
13251;DHT22;6692;50.710;7.180;2022-11-23T08:57:23;9.50;99.90
13251;DHT22;6692;50.710;7.180;2022-11-23T08:59:23;9.50;99.90
13251;DHT22;6692;50.710;7.180;2022-11-23T09:01:24;9.40;99.90
13251;DHT22;6692;50.710;7.180;2022-11-23T09:03:25;9.40;99.90
13251;DHT22;6692;50.710;7.180;2022-11-23T09:05:26;9.40;99.90
13251;DHT22;6692;50.710;7.180;2022-11-23T09:07:26;9.40;99.90
13251;DHT22;6692;50.710;7.180;2022-11-23T09:09:27;9.50;99.90
13251;DHT22;6692;50.710;7.180;2022-11-23T09:11:27;9.60;99.90
13251;DHT22;6692;50.710;7.180;2022-11-23T09:13:28;9.70;99.90
13251;DHT22;6692;50.710;7.180;2022-11-23T09:15:30;10.00;99.90
13251;DHT22;6692;50.710;7.180;2022-11-23T09:17:31;10.10;99.90
13251;DHT22;6692;50.710;7.180;2022-11-23T09:19:32;10.20;99.90
13251;DHT22;6692;50.710;7.180;2022-11-23T09:21:32;10.10;99.90
13251;DHT22;6692;50.710;7.180;2022-11-23T09:23:33;10.10;99.90
13251;DHT22;6692;50.710;7.180;2022-11-23T09:25:34;10.00;99.90
13251;DHT22;6692;50.710;7.180;2022-11-23T09:27:34;9.90;99.90
13251;DHT22;6692;50.710;7.180;2022-11-23T09:29:36;9.70;99.90
13251;DHT22;6692;50.710;7.180;2022-11-23T09:31:37;9.70;99.90
13251;DHT22;6692;50.710;7.180;2022-11-23T09:33:38;9.70;99.90
13251;DHT22;6692;50.710;7.180;2022-11-23T09:35:39;9.70;99.90
13251;DHT22;6692;50.710;7.180;2022-11-23T09:37:40;9.60;99.90
13251;DHT22;6692;50.710;7.180;2022-11-23T09:39:41;9.60;99.90
13251;DHT22;6692;50.710;7.180;2022-11-23T09:44:03;9.60;99.90
13251;DHT22;6692;50.710;7.180;2022-11-23T09:46:06;9.60;99.90
13251;DHT22;6692;50.710;7.180;2022-11-23T09:48:25;9.90;99.90
13251;DHT22;6692;50.710;7.180;2022-11-23T09:50:49;10.10;99.90
13251;DHT22;6692;50.710;7.180;2022-11-23T09:52:48;10.10;99.90
13251;DHT22;6692;50.710;7.180;2022-11-23T09:54:50;10.30;99.90
13251;DHT22;6692;50.710;7.180;2022-11-23T09:56:50;10.40;99.90
13251;DHT22;6692;50.710;7.180;2022-11-23T09:58:52;10.60;99.90
13251;DHT22;6692;50.710;7.180;2022-11-23T10:01:00;10.70;99.90
13251;DHT22;6692;50.710;7.180;2022-11-23T10:03:01;10.80;99.90
13251;DHT22;6692;50.710;7.180;2022-11-23T10:05:02;10.90;99.90
13251;DHT22;6692;50.710;7.180;2022-11-23T10:09:57;11.00;99.90
13251;DHT22;6692;50.710;7.180;2022-11-23T10:12:21;11.00;99.90
13251;DHT22;6692;50.710;7.180;2022-11-23T10:14:43;11.10;99.90
13251;DHT22;6692;50.710;7.180;2022-11-23T10:16:48;11.10;99.90
13251;DHT22;6692;50.710;7.180;2022-11-23T10:18:56;11.10;99.90
13251;DHT22;6692;50.710;7.180;2022-11-23T10:20:58;11.10;99.90
13251;DHT22;6692;50.710;7.180;2022-11-23T10:22:57;11.10;99.90
13251;DHT22;6692;50.710;7.180;2022-11-23T10:24:58;11.00;99.90
13251;DHT22;6692;50.710;7.180;2022-11-23T10:26:58;11.00;99.90
13251;DHT22;6692;50.710;7.180;2022-11-23T10:29:05;11.10;99.90
13251;DHT22;6692;50.710;7.180;2022-11-23T10:31:09;11.10;99.90
13251;DHT22;6692;50.710;7.180;2022-11-23T10:33:30;11.40;99.90
13251;DHT22;6692;50.710;7.180;2022-11-23T10:35:31;11.40;99.90
13251;DHT22;6692;50.710;7.180;2022-11-23T10:37:31;11.50;99.90
13251;DHT22;6692;50.710;7.180;2022-11-23T10:39:32;11.50;99.90
13251;DHT22;6692;50.710;7.180;2022-11-23T10:41:32;11.50;99.90
13251;DHT22;6692;50.710;7.180;2022-11-23T10:43:37;11.70;99.90
13251;DHT22;6692;50.710;7.180;2022-11-23T10:45:34;11.60;99.90
13251;DHT22;6692;50.710;7.180;2022-11-23T10:47:37;11.70;99.90
13251;DHT22;6692;50.710;7.180;2022-11-23T10:49:36;11.50;99.90
13251;DHT22;6692;50.710;7.180;2022-11-23T10:51:37;11.20;99.90
13251;DHT22;6692;50.710;7.180;2022-11-23T10:53:38;11.20;99.90
13251;DHT22;6692;50.710;7.180;2022-11-23T10:55:46;11.10;99.90
13251;DHT22;6692;50.710;7.180;2022-11-23T10:57:46;11.00;99.90
13251;DHT22;6692;50.710;7.180;2022-11-23T10:59:59;10.80;99.90
13251;DHT22;6692;50.710;7.180;2022-11-23T11:02:01;10.70;99.90
13251;DHT22;6692;50.710;7.180;2022-11-23T11:04:01;10.70;99.90
13251;DHT22;6692;50.710;7.180;2022-11-23T11:06:02;10.50;99.90
13251;DHT22;6692;50.710;7.180;2022-11-23T11:08:13;10.50;99.90
13251;DHT22;6692;50.710;7.180;2022-11-23T11:10:30;10.40;99.90
13251;DHT22;6692;50.710;7.180;2022-11-23T11:12:27;10.40;99.90
13251;DHT22;6692;50.710;7.180;2022-11-23T11:14:28;10.30;99.90
13251;DHT22;6692;50.710;7.180;2022-11-23T11:16:31;10.30;99.90
13251;DHT22;6692;50.710;7.180;2022-11-23T11:18:32;10.30;99.90
13251;DHT22;6692;50.710;7.180;2022-11-23T11:20:33;10.30;99.90
13251;DHT22;6692;50.710;7.180;2022-11-23T11:22:33;10.30;99.90
13251;DHT22;6692;50.710;7.180;2022-11-23T11:24:36;10.30;99.90
13251;DHT22;6692;50.710;7.180;2022-11-23T11:26:36;10.30;99.90
13251;DHT22;6692;50.710;7.180;2022-11-23T11:28:40;10.30;99.90
13251;DHT22;6692;50.710;7.180;2022-11-23T11:30:45;10.40;99.90
13251;DHT22;6692;50.710;7.180;2022-11-23T11:33:10;10.50;99.90
13251;DHT22;6692;50.710;7.180;2022-11-23T11:35:12;10.40;99.90
13251;DHT22;6692;50.710;7.180;2022-11-23T11:39:23;10.60;99.90
13251;DHT22;6692;50.710;7.180;2022-11-23T11:41:22;10.70;99.90
13251;DHT22;6692;50.710;7.180;2022-11-23T11:43:26;10.80;99.90
13251;DHT22;6692;50.710;7.180;2022-11-23T11:45:28;11.10;99.90
13251;DHT22;6692;50.710;7.180;2022-11-23T11:47:35;11.20;99.90
13251;DHT22;6692;50.710;7.180;2022-11-23T11:49:34;11.20;99.90
13251;DHT22;6692;50.710;7.180;2022-11-23T11:51:35;11.40;99.90
13251;DHT22;6692;50.710;7.180;2022-11-23T11:53:38;11.40;99.90
13251;DHT22;6692;50.710;7.180;2022-11-23T11:55:52;11.40;99.90
13251;DHT22;6692;50.710;7.180;2022-11-23T11:57:53;11.40;99.90
13251;DHT22;6692;50.710;7.180;2022-11-23T11:59:53;11.40;99.90
13251;DHT22;6692;50.710;7.180;2022-11-23T12:01:59;11.40;99.90
13251;DHT22;6692;50.710;7.180;2022-11-23T12:03:58;11.40;99.90
13251;DHT22;6692;50.710;7.180;2022-11-23T12:05:58;11.60;99.90
13251;DHT22;6692;50.710;7.180;2022-11-23T12:08:08;11.80;99.90
13251;DHT22;6692;50.710;7.180;2022-11-23T12:10:11;11.80;99.90
13251;DHT22;6692;50.710;7.180;2022-11-23T12:12:15;11.90;99.90
13251;DHT22;6692;50.710;7.180;2022-11-23T12:14:15;12.00;99.90
13251;DHT22;6692;50.710;7.180;2022-11-23T12:16:33;12.00;99.90
13251;DHT22;6692;50.710;7.180;2022-11-23T12:18:55;12.10;99.90
13251;DHT22;6692;50.710;7.180;2022-11-23T12:23:23;12.10;99.90
13251;DHT22;6692;50.710;7.180;2022-11-23T12:25:24;12.20;99.90
13251;DHT22;6692;50.710;7.180;2022-11-23T12:27:31;12.20;99.90
13251;DHT22;6692;50.710;7.180;2022-11-23T12:29:51;12.20;99.90
13251;DHT22;6692;50.710;7.180;2022-11-23T12:31:50;12.20;99.90
13251;DHT22;6692;50.710;7.180;2022-11-23T12:34:05;12.10;99.90
13251;DHT22;6692;50.710;7.180;2022-11-23T12:36:30;11.70;99.90
13251;DHT22;6692;50.710;7.180;2022-11-23T12:38:31;11.70;99.90
13251;DHT22;6692;50.710;7.180;2022-11-23T12:40:36;11.60;99.90
13251;DHT22;6692;50.710;7.180;2022-11-23T12:42:39;11.40;99.90
13251;DHT22;6692;50.710;7.180;2022-11-23T12:44:56;11.30;99.90
13251;DHT22;6692;50.710;7.180;2022-11-23T12:46:57;11.10;99.90
13251;DHT22;6692;50.710;7.180;2022-11-23T12:49:19;11.10;99.90
13251;DHT22;6692;50.710;7.180;2022-11-23T12:51:44;11.40;99.90
13251;DHT22;6692;50.710;7.180;2022-11-23T12:53:49;11.40;99.90
13251;DHT22;6692;50.710;7.180;2022-11-23T12:55:55;11.50;99.90
13251;DHT22;6692;50.710;7.180;2022-11-23T12:57:58;11.70;99.90
13251;DHT22;6692;50.710;7.180;2022-11-23T13:00:01;11.80;99.90
13251;DHT22;6692;50.710;7.180;2022-11-23T13:02:02;11.90;99.90
13251;DHT22;6692;50.710;7.180;2022-11-23T13:04:28;11.80;99.90
13251;DHT22;6692;50.710;7.180;2022-11-23T13:09:04;11.90;99.90
13251;DHT22;6692;50.710;7.180;2022-11-23T13:13:35;11.80;99.90
13251;DHT22;6692;50.710;7.180;2022-11-23T13:18:29;11.70;99.90
13251;DHT22;6692;50.710;7.180;2022-11-23T13:20:28;11.70;99.90
13251;DHT22;6692;50.710;7.180;2022-11-23T13:22:28;11.60;99.90
13251;DHT22;6692;50.710;7.180;2022-11-23T13:24:30;11.60;99.90
13251;DHT22;6692;50.710;7.180;2022-11-23T13:26:30;11.60;99.90
13251;DHT22;6692;50.710;7.180;2022-11-23T13:28:30;11.50;99.90
13251;DHT22;6692;50.710;7.180;2022-11-23T13:30:32;11.50;99.90
13251;DHT22;6692;50.710;7.180;2022-11-23T13:32:51;11.50;99.90
13251;DHT22;6692;50.710;7.180;2022-11-23T13:34:50;11.40;99.90